createdAt,value
2018-01-12T00:01:52.665Z,4.20
2018-01-12T00:07:00.993Z,4.30
2018-01-12T00:09:28.449Z,4.20
2018-01-12T00:11:55.874Z,4.20
2018-01-12T00:14:23.504Z,4.20
2018-01-12T00:16:50.965Z,4.20
2018-01-12T00:19:18.386Z,4.30
2018-01-12T00:21:45.874Z,4.20
2018-01-12T00:24:13.297Z,4.20
2018-01-12T00:26:41.103Z,4.20
2018-01-12T00:29:08.541Z,4.20
2018-01-12T00:31:35.997Z,4.20
2018-01-12T00:34:03.659Z,4.10
2018-01-12T00:36:31.082Z,4.10
2018-01-12T00:38:59.281Z,3.90
2018-01-12T00:41:26.712Z,3.90
2018-01-12T00:43:54.143Z,3.90
2018-01-12T00:46:21.568Z,3.90
2018-01-12T00:48:49.070Z,4.00
2018-01-12T00:51:16.493Z,4.00
2018-01-12T00:53:43.958Z,4.10
2018-01-12T00:56:11.387Z,4.10
2018-01-12T00:58:38.874Z,4.10
2018-01-12T01:01:06.330Z,4.10
2018-01-12T01:03:33.764Z,4.00
2018-01-12T01:06:01.338Z,3.90
2018-01-12T01:08:28.773Z,3.90
2018-01-12T01:10:56.197Z,3.80
2018-01-12T01:13:23.617Z,3.70
2018-01-12T01:15:51.057Z,3.70
2018-01-12T01:18:18.642Z,3.70
2018-01-12T01:20:46.243Z,3.70
2018-01-12T01:23:14.650Z,3.70
2018-01-12T01:25:42.134Z,3.70
2018-01-12T01:28:09.599Z,3.70
2018-01-12T01:30:37.150Z,3.80
2018-01-12T01:33:04.691Z,3.80
2018-01-12T01:35:32.378Z,3.70
2018-01-12T01:37:59.833Z,3.70
2018-01-12T01:40:27.264Z,3.80
2018-01-12T01:42:54.753Z,3.80
2018-01-12T01:45:22.183Z,3.80
2018-01-12T01:47:49.790Z,3.90
2018-01-12T01:50:17.413Z,3.90
2018-01-12T01:52:44.842Z,3.90
2018-01-12T01:55:12.271Z,4.00
2018-01-12T01:57:39.701Z,4.00
2018-01-12T02:00:07.159Z,4.00
2018-01-12T02:02:34.590Z,4.00
2018-01-12T02:05:02.176Z,4.00
2018-01-12T02:07:30.557Z,4.00
2018-01-12T02:09:58.318Z,4.00
2018-01-12T02:12:25.782Z,4.10
2018-01-12T02:14:53.286Z,4.00
2018-01-12T02:17:20.938Z,4.00
2018-01-12T02:19:48.360Z,3.90
2018-01-12T02:22:15.822Z,3.90
2018-01-12T02:24:43.273Z,3.80
2018-01-12T02:27:10.833Z,3.80
2018-01-12T02:29:38.466Z,3.90
2018-01-12T02:32:05.893Z,3.80
2018-01-12T02:34:33.522Z,3.90
2018-01-12T02:37:00.967Z,3.90
2018-01-12T02:39:28.389Z,3.80
2018-01-12T02:41:56.194Z,3.80
2018-01-12T02:44:23.962Z,3.80
2018-01-12T02:46:51.598Z,3.80
2018-01-12T02:49:19.085Z,3.90
2018-01-12T02:51:46.538Z,3.90
2018-01-12T02:54:14.001Z,3.90
2018-01-12T02:56:41.450Z,3.90
2018-01-12T02:59:08.886Z,3.90
2018-01-12T03:01:36.342Z,3.90
2018-01-12T03:04:03.846Z,3.90
2018-01-12T03:06:31.282Z,4.00
2018-01-12T03:08:58.769Z,4.00
2018-01-12T03:11:26.207Z,4.00
2018-01-12T03:13:53.633Z,4.00
2018-01-12T03:16:21.116Z,4.00
2018-01-12T03:18:48.605Z,4.00
2018-01-12T03:21:16.925Z,4.00
2018-01-12T03:23:44.414Z,4.00
2018-01-12T03:26:11.968Z,4.00
2018-01-12T03:28:39.601Z,4.10
2018-01-12T03:31:07.194Z,4.00
2018-01-12T03:33:34.622Z,4.00
2018-01-12T03:36:02.047Z,4.00
2018-01-12T03:38:29.473Z,4.00
2018-01-12T03:40:56.930Z,4.00
2018-01-12T03:43:24.413Z,4.00
2018-01-12T03:45:51.841Z,4.00
2018-01-12T03:48:19.398Z,3.90
2018-01-12T03:50:46.836Z,4.00
2018-01-12T03:53:14.290Z,4.00
2018-01-12T03:55:41.758Z,4.00
2018-01-12T03:58:09.161Z,4.00
2018-01-12T04:00:36.680Z,4.10
2018-01-12T04:03:04.105Z,4.10
2018-01-12T04:05:31.530Z,4.00
2018-01-12T04:07:59.060Z,4.00
2018-01-12T04:10:26.527Z,4.00
2018-01-12T04:12:54.155Z,4.10
2018-01-12T04:15:21.749Z,4.10
2018-01-12T04:17:49.203Z,4.00
2018-01-12T04:20:16.838Z,4.00
2018-01-12T04:22:44.327Z,4.00
2018-01-12T04:25:11.786Z,4.10
2018-01-12T04:27:39.209Z,4.10
2018-01-12T04:30:06.697Z,4.10
2018-01-12T04:32:34.148Z,4.20
2018-01-12T04:35:01.606Z,4.10
2018-01-12T04:37:29.090Z,4.20
2018-01-12T04:39:56.517Z,4.20
2018-01-12T04:42:24.028Z,4.10
2018-01-12T04:44:51.454Z,4.10
2018-01-12T04:47:19.002Z,4.10
2018-01-12T04:49:46.431Z,4.20
2018-01-12T04:52:13.917Z,4.10
2018-01-12T04:54:41.346Z,4.10
2018-01-12T04:57:08.842Z,4.10
2018-01-12T04:59:36.273Z,4.00
2018-01-12T05:02:03.706Z,4.10
2018-01-12T05:04:31.138Z,4.00
2018-01-12T05:06:59.459Z,4.00
2018-01-12T05:09:27.060Z,4.10
2018-01-12T05:11:54.511Z,4.10
2018-01-12T05:14:21.949Z,4.10
2018-01-12T05:16:49.427Z,4.00
2018-01-12T05:19:16.864Z,4.00
2018-01-12T05:21:44.295Z,4.10
2018-01-12T05:24:11.717Z,4.10
2018-01-12T05:26:39.153Z,4.10
2018-01-12T05:29:06.607Z,4.10
2018-01-12T05:31:34.139Z,4.10
2018-01-12T05:34:01.566Z,4.10
2018-01-12T05:36:30.001Z,4.10
2018-01-12T05:38:57.651Z,4.10
2018-01-12T05:41:25.142Z,4.10
2018-01-12T05:43:52.570Z,4.10
2018-01-12T05:46:19.993Z,4.20
2018-01-12T05:48:48.177Z,4.20
2018-01-12T05:51:15.605Z,4.20
2018-01-12T05:53:43.089Z,4.10
2018-01-12T05:56:10.590Z,4.10
2018-01-12T05:58:38.355Z,4.10
2018-01-12T06:01:17.605Z,4.10
2018-01-12T06:03:56.846Z,4.10
2018-01-12T06:06:25.045Z,4.10
2018-01-12T06:08:52.585Z,4.00
2018-01-12T06:11:20.016Z,4.10
2018-01-12T06:13:47.569Z,4.10
2018-01-12T06:16:15.037Z,4.10
2018-01-12T06:18:42.501Z,4.10
2018-01-12T06:21:09.958Z,4.10
2018-01-12T06:23:37.385Z,4.00
2018-01-12T06:26:04.966Z,4.00
2018-01-12T06:28:32.428Z,4.00
2018-01-12T06:30:59.852Z,4.00
2018-01-12T06:33:27.264Z,4.00
2018-01-12T06:35:54.805Z,4.10
2018-01-12T06:38:22.558Z,4.10
2018-01-12T06:40:49.989Z,4.00
2018-01-12T06:43:17.406Z,4.10
2018-01-12T06:45:44.841Z,4.10
2018-01-12T06:48:12.295Z,4.20
2018-01-12T06:50:39.753Z,4.10
2018-01-12T06:53:07.218Z,4.10
2018-01-12T06:55:34.776Z,4.10
2018-01-12T06:58:02.194Z,4.10
2018-01-12T07:00:29.626Z,4.20
2018-01-12T07:02:57.053Z,4.20
2018-01-12T07:05:24.593Z,4.20
2018-01-12T07:07:52.129Z,4.20
2018-01-12T07:10:19.704Z,4.20
2018-01-12T07:12:47.282Z,4.20
2018-01-12T07:15:14.700Z,4.20
2018-01-12T07:17:42.198Z,4.20
2018-01-12T07:20:21.321Z,4.30
2018-01-12T07:23:00.709Z,4.20
2018-01-12T07:25:28.939Z,4.30
2018-01-12T07:27:56.501Z,4.20
2018-01-12T07:30:23.969Z,4.30
2018-01-12T07:32:51.382Z,4.30
2018-01-12T07:35:18.978Z,4.20
2018-01-12T07:37:46.433Z,4.20
2018-01-12T07:40:14.082Z,4.30
2018-01-12T07:42:41.606Z,4.20
2018-01-12T07:45:09.026Z,4.20
2018-01-12T07:47:36.474Z,4.20
2018-01-12T07:50:03.917Z,4.20
2018-01-12T07:52:31.390Z,4.10
2018-01-12T07:54:58.857Z,4.10
2018-01-12T07:57:26.405Z,4.10
2018-01-12T07:59:53.837Z,4.00
2018-01-12T08:02:26.802Z,4.10
2018-01-12T08:04:54.305Z,4.10
2018-01-12T08:07:21.954Z,4.10
2018-01-12T08:09:49.529Z,4.20
2018-01-12T08:12:16.962Z,4.10
2018-01-12T08:14:44.397Z,4.20
2018-01-12T08:17:11.834Z,4.20
2018-01-12T08:19:39.252Z,4.20
2018-01-12T08:22:06.682Z,4.30
2018-01-12T08:24:34.173Z,4.30
2018-01-12T08:27:01.734Z,4.30
2018-01-12T08:29:29.178Z,4.30
2018-01-12T08:31:56.601Z,4.30
2018-01-12T08:34:24.041Z,4.40
2018-01-12T08:36:51.566Z,4.30
2018-01-12T08:39:19.029Z,4.30
2018-01-12T08:41:46.662Z,4.30
2018-01-12T08:44:14.137Z,4.40
2018-01-12T08:46:41.545Z,4.40
2018-01-12T08:49:09.965Z,4.40
2018-01-12T08:51:37.423Z,4.40
2018-01-12T08:54:05.013Z,4.50
2018-01-12T08:56:32.425Z,4.50
2018-01-12T08:58:59.847Z,4.50
2018-01-12T09:01:27.292Z,4.40
2018-01-12T09:03:54.754Z,4.50
2018-01-12T09:06:22.190Z,4.50
2018-01-12T09:08:49.627Z,4.40
2018-01-12T09:11:17.061Z,4.50
2018-01-12T09:13:56.026Z,4.50
2018-01-12T09:16:28.655Z,4.40
2018-01-12T09:19:08.153Z,4.30
2018-01-12T09:21:36.524Z,4.30
2018-01-12T09:24:15.825Z,4.30
2018-01-12T09:26:44.040Z,4.40
2018-01-12T09:29:11.465Z,4.40
2018-01-12T09:31:42.949Z,4.30
2018-01-12T09:34:22.197Z,4.40
2018-01-12T09:36:49.623Z,4.40
2018-01-12T09:39:28.755Z,4.40
2018-01-12T09:41:56.230Z,4.40
2018-01-12T09:44:23.641Z,4.40
2018-01-12T09:46:51.077Z,4.50
2018-01-12T09:49:23.158Z,4.50
2018-01-12T09:51:50.873Z,4.50
2018-01-12T09:54:18.314Z,4.50
2018-01-12T09:56:45.742Z,4.50
2018-01-12T09:59:13.169Z,4.50
2018-01-12T10:01:41.625Z,4.60
2018-01-12T10:04:09.091Z,4.60
2018-01-12T10:06:36.521Z,4.60
2018-01-12T10:09:03.953Z,4.70
2018-01-12T10:11:32.153Z,4.80
2018-01-12T10:13:59.810Z,4.70
2018-01-12T10:16:27.264Z,4.80
2018-01-12T10:18:54.694Z,4.90
2018-01-12T10:21:34.189Z,4.90
2018-01-12T10:24:01.633Z,5.00
2018-01-12T10:26:29.056Z,5.00
2018-01-12T10:29:06.243Z,5.00
2018-01-12T10:31:41.075Z,4.90
2018-01-12T10:34:09.269Z,4.90
2018-01-12T10:36:36.702Z,4.90
2018-01-12T10:39:04.133Z,4.90
2018-01-12T10:41:52.359Z,5.00
2018-01-12T10:44:20.026Z,5.10
2018-01-12T10:46:47.486Z,5.10
2018-01-12T10:49:27.226Z,5.10
2018-01-12T10:52:06.452Z,5.10
2018-01-12T10:54:34.122Z,5.10
2018-01-12T10:57:01.560Z,5.10
2018-01-12T10:59:29.009Z,5.10
2018-01-12T11:01:56.442Z,5.10
2018-01-12T11:04:23.883Z,5.00
2018-01-12T11:06:51.314Z,5.10
2018-01-12T11:09:18.757Z,5.10
2018-01-12T11:11:46.200Z,5.00
2018-01-12T11:14:13.721Z,5.00
2018-01-12T11:16:41.236Z,5.00
2018-01-12T11:19:08.693Z,5.00
2018-01-12T11:21:36.162Z,5.00
2018-01-12T11:24:03.612Z,5.00
2018-01-12T11:26:31.251Z,4.90
2018-01-12T11:28:59.437Z,5.00
2018-01-12T11:31:26.866Z,5.00
2018-01-12T11:33:54.365Z,4.90
2018-01-12T11:36:22.218Z,4.90
2018-01-12T11:38:49.812Z,4.90
2018-01-12T11:41:17.242Z,4.90
2018-01-12T11:43:44.728Z,4.90
2018-01-12T11:46:12.151Z,4.90
2018-01-12T11:48:39.826Z,4.90
2018-01-12T11:51:07.357Z,5.00
2018-01-12T11:53:34.859Z,4.90
2018-01-12T11:56:02.296Z,4.90
2018-01-12T11:58:29.764Z,4.90
2018-01-12T12:00:57.193Z,5.00
2018-01-12T12:03:24.684Z,4.90
2018-01-12T12:05:52.142Z,4.90
2018-01-12T12:08:19.701Z,4.90
2018-01-12T12:10:47.149Z,4.90
2018-01-12T12:13:14.617Z,4.80
2018-01-12T12:15:42.073Z,4.90
2018-01-12T12:18:09.497Z,4.80
2018-01-12T12:20:36.927Z,4.90
2018-01-12T12:23:04.361Z,4.90
2018-01-12T12:25:31.793Z,4.90
2018-01-12T12:27:59.225Z,5.00
2018-01-12T12:30:26.665Z,5.00
2018-01-12T12:32:54.893Z,5.00
2018-01-12T12:35:22.648Z,5.00
2018-01-12T12:37:50.292Z,5.00
2018-01-12T12:40:18.808Z,5.00
2018-01-12T12:42:46.301Z,5.00
2018-01-12T12:45:14.023Z,4.90
2018-01-12T12:47:41.454Z,5.00
2018-01-12T12:50:08.946Z,5.10
2018-01-12T12:52:36.381Z,5.10
2018-01-12T12:55:03.816Z,5.10
2018-01-12T12:57:31.308Z,5.00
2018-01-12T12:59:59.693Z,5.00
2018-01-12T13:02:27.130Z,5.00
2018-01-12T13:04:54.573Z,5.00
2018-01-12T13:07:21.997Z,5.00
2018-01-12T13:09:49.441Z,5.10
2018-01-12T13:12:16.873Z,5.20
2018-01-12T13:14:44.309Z,5.10
2018-01-12T13:17:11.733Z,5.60
2018-01-12T13:19:39.354Z,6.90
2018-01-12T13:22:06.809Z,7.10
2018-01-12T13:24:34.237Z,6.70
2018-01-12T13:27:01.666Z,6.30
2018-01-12T13:29:29.093Z,5.90
2018-01-12T13:31:56.645Z,5.60
2018-01-12T13:34:24.106Z,5.40
2018-01-12T13:36:51.529Z,5.40
2018-01-12T13:39:19.018Z,5.30
2018-01-12T13:41:46.781Z,5.30
2018-01-12T13:44:14.549Z,5.20
2018-01-12T13:46:42.210Z,5.20
2018-01-12T13:49:09.671Z,5.20
2018-01-12T13:51:37.119Z,5.20
2018-01-12T13:54:04.528Z,5.10
2018-01-12T13:56:32.056Z,5.20
2018-01-12T13:58:59.473Z,5.20
2018-01-12T14:01:27.061Z,5.10
2018-01-12T14:03:54.550Z,5.00
2018-01-12T14:06:22.149Z,5.00
2018-01-12T14:08:49.641Z,5.10
2018-01-12T14:11:17.144Z,5.20
2018-01-12T14:13:44.646Z,5.20
2018-01-12T14:16:12.096Z,5.20
2018-01-12T14:18:39.573Z,5.20
2018-01-12T14:21:07.018Z,5.30
2018-01-12T14:23:34.443Z,5.30
2018-01-12T14:26:01.885Z,5.30
2018-01-12T14:28:29.401Z,5.30
2018-01-12T14:30:57.057Z,5.30
2018-01-12T14:33:24.624Z,5.30
2018-01-12T14:35:52.166Z,5.30
2018-01-12T14:38:19.717Z,5.30
2018-01-12T14:40:47.212Z,5.30
2018-01-12T14:43:14.637Z,5.40
2018-01-12T14:45:42.139Z,5.40
2018-01-12T14:48:09.593Z,5.30
2018-01-12T14:50:37.022Z,5.30
2018-01-12T14:53:04.478Z,5.30
2018-01-12T14:55:32.056Z,5.40
2018-01-12T14:57:59.477Z,5.30
2018-01-12T15:00:26.904Z,5.20
2018-01-12T15:02:54.430Z,5.20
2018-01-12T15:05:22.179Z,5.10
2018-01-12T15:07:49.617Z,5.00
2018-01-12T15:10:17.053Z,5.00
2018-01-12T15:12:44.497Z,5.00
2018-01-12T15:15:12.949Z,4.90
2018-01-12T15:17:40.602Z,4.90
2018-01-12T15:20:08.070Z,5.00
2018-01-12T15:22:35.541Z,5.00
2018-01-12T15:25:02.981Z,5.00
2018-01-12T15:27:30.424Z,5.10
2018-01-12T15:29:57.864Z,5.00
2018-01-12T15:32:25.462Z,5.10
2018-01-12T15:34:52.889Z,5.00
2018-01-12T15:37:20.377Z,5.00
2018-01-12T15:39:47.805Z,5.10
2018-01-12T15:42:15.289Z,5.10
2018-01-12T15:44:42.717Z,5.10
2018-01-12T15:47:10.153Z,5.10
2018-01-12T15:49:38.378Z,5.00
2018-01-12T15:52:06.046Z,5.00
2018-01-12T15:54:33.481Z,4.90
2018-01-12T15:57:00.909Z,4.90
2018-01-12T15:59:29.098Z,4.90
2018-01-12T16:01:56.789Z,4.90
2018-01-12T16:04:24.217Z,4.90
2018-01-12T16:06:51.696Z,4.90
2018-01-12T16:09:19.175Z,4.90
2018-01-12T16:11:46.800Z,4.90
2018-01-12T16:14:14.236Z,4.90
2018-01-12T16:16:42.427Z,5.00
2018-01-12T16:19:09.856Z,5.00
2018-01-12T16:21:37.383Z,5.00
2018-01-12T16:24:04.801Z,5.00
2018-01-12T16:26:32.218Z,4.90
2018-01-12T16:28:59.677Z,4.90
2018-01-12T16:31:27.118Z,4.90
2018-01-12T16:33:54.674Z,4.90
2018-01-12T16:36:22.093Z,4.90
2018-01-12T16:38:49.542Z,4.90
2018-01-12T16:41:16.960Z,4.90
2018-01-12T16:43:44.422Z,4.90
2018-01-12T16:46:11.957Z,4.90
2018-01-12T16:48:39.521Z,4.80
2018-01-12T16:51:07.186Z,4.90
2018-01-12T16:53:34.640Z,4.90
2018-01-12T16:56:02.065Z,4.80
2018-01-12T16:58:29.607Z,4.80
2018-01-12T17:00:57.185Z,4.80
2018-01-12T17:03:24.664Z,4.90
2018-01-12T17:05:52.130Z,4.90
2018-01-12T17:08:19.612Z,4.90
2018-01-12T17:10:47.053Z,4.80
2018-01-12T17:13:14.609Z,4.90
2018-01-12T17:15:42.242Z,4.80
2018-01-12T17:18:09.842Z,4.80
2018-01-12T17:20:37.603Z,4.80
2018-01-12T17:23:05.028Z,4.80
2018-01-12T17:25:32.515Z,4.80
2018-01-12T17:28:00.279Z,4.80
2018-01-12T17:30:28.042Z,4.80
2018-01-12T17:32:55.487Z,4.90
2018-01-12T17:35:22.962Z,4.90
2018-01-12T17:37:50.385Z,4.90
2018-01-12T17:40:17.814Z,4.90
2018-01-12T17:42:45.334Z,4.80
2018-01-12T17:45:12.794Z,4.80
2018-01-12T17:47:40.218Z,4.80
2018-01-12T17:50:07.712Z,4.80
2018-01-12T17:52:35.342Z,4.80
2018-01-12T17:55:02.823Z,4.70
2018-01-12T17:57:30.287Z,4.70
2018-01-12T17:59:57.845Z,4.70
2018-01-12T18:02:25.476Z,4.70
2018-01-12T18:04:52.953Z,4.80
2018-01-12T18:07:20.425Z,4.80
2018-01-12T18:09:47.985Z,4.80
2018-01-12T18:12:15.617Z,4.80
2018-01-12T18:14:43.215Z,4.80
2018-01-12T18:17:10.670Z,4.90
2018-01-12T18:19:38.430Z,4.80
2018-01-12T18:22:05.861Z,4.80
2018-01-12T18:24:33.305Z,4.80
2018-01-12T18:27:00.805Z,4.80
2018-01-12T18:29:28.251Z,4.80
2018-01-12T18:31:55.725Z,4.80
2018-01-12T18:34:23.373Z,4.80
2018-01-12T18:36:50.841Z,4.80
2018-01-12T18:39:18.406Z,4.80
2018-01-12T18:41:45.859Z,4.80
2018-01-12T18:44:13.280Z,4.90
2018-01-12T18:46:40.776Z,4.90
2018-01-12T18:49:08.407Z,4.90
2018-01-12T18:51:35.867Z,4.90
2018-01-12T18:54:03.381Z,4.90
2018-01-12T18:56:30.809Z,4.80
2018-01-12T18:58:58.302Z,4.90
2018-01-12T19:01:26.753Z,4.90
2018-01-12T19:03:54.204Z,4.90
2018-01-12T19:06:21.842Z,4.90
2018-01-12T19:08:49.428Z,4.90
2018-01-12T19:11:17.057Z,4.90
2018-01-12T19:13:44.653Z,4.80
2018-01-12T19:16:12.101Z,4.80
2018-01-12T19:18:39.531Z,4.80
2018-01-12T19:21:06.968Z,4.90
2018-01-12T19:23:35.162Z,4.90
2018-01-12T19:26:02.749Z,4.80
2018-01-12T19:28:30.193Z,4.80
2018-01-12T19:30:57.712Z,4.80
2018-01-12T19:33:25.906Z,4.80
2018-01-12T19:35:53.616Z,4.80
2018-01-12T19:38:21.237Z,4.90
2018-01-12T19:40:49.442Z,4.90
2018-01-12T19:43:16.870Z,4.80
2018-01-12T19:45:44.370Z,4.90
2018-01-12T19:48:12.138Z,4.90
2018-01-12T19:50:39.583Z,5.00
2018-01-12T19:53:07.052Z,5.00
2018-01-12T19:55:34.495Z,5.00
2018-01-12T19:58:01.918Z,5.00
2018-01-12T20:00:29.426Z,5.00
2018-01-12T20:02:56.961Z,5.10
2018-01-12T20:05:24.739Z,5.10
2018-01-12T20:07:52.322Z,5.00
2018-01-12T20:10:19.873Z,5.00
2018-01-12T20:12:47.335Z,5.10
2018-01-12T20:15:14.964Z,5.00
2018-01-12T20:17:42.559Z,5.00
2018-01-12T20:20:09.982Z,5.00
2018-01-12T20:22:37.403Z,5.00
2018-01-12T20:25:04.929Z,5.00
2018-01-12T20:27:32.358Z,5.10
2018-01-12T20:29:59.849Z,5.10
2018-01-12T20:32:27.277Z,5.10
2018-01-12T20:34:54.701Z,5.10
2018-01-12T20:37:22.149Z,5.10
2018-01-12T20:39:49.576Z,5.10
2018-01-12T20:42:17.133Z,5.10
2018-01-12T20:44:44.562Z,5.00
2018-01-12T20:47:11.996Z,5.00
2018-01-12T20:49:39.423Z,5.10
2018-01-12T20:52:06.961Z,5.00
2018-01-12T20:54:34.380Z,5.10
2018-01-12T20:57:01.826Z,5.00
2018-01-12T20:59:29.246Z,5.00
2018-01-12T21:01:56.708Z,5.00
2018-01-12T21:04:24.493Z,5.10
2018-01-12T21:06:52.853Z,5.10
2018-01-12T21:09:20.401Z,5.10
2018-01-12T21:11:47.854Z,5.10
2018-01-12T21:14:15.398Z,5.00
2018-01-12T21:16:42.997Z,5.00
2018-01-12T21:19:10.447Z,5.00
2018-01-12T21:21:37.931Z,5.00
2018-01-12T21:24:05.348Z,5.00
2018-01-12T21:26:32.777Z,5.00
2018-01-12T21:29:00.365Z,5.10
2018-01-12T21:31:27.830Z,5.10
2018-01-12T21:33:55.457Z,5.20
2018-01-12T21:36:22.948Z,5.20
2018-01-12T21:38:50.509Z,5.30
2018-01-12T21:41:17.969Z,5.40
2018-01-12T21:43:45.365Z,5.20
2018-01-12T21:46:12.797Z,5.30
2018-01-12T21:48:40.240Z,5.30
2018-01-12T21:51:07.697Z,5.30
2018-01-12T21:53:35.153Z,5.30
2018-01-12T21:56:02.716Z,5.30
2018-01-12T21:58:30.159Z,5.30
2018-01-12T22:00:57.581Z,5.30
2018-01-12T22:03:25.021Z,5.30
2018-01-12T22:05:52.445Z,5.20
2018-01-12T22:08:20.001Z,5.20
2018-01-12T22:10:47.634Z,5.30
2018-01-12T22:13:15.233Z,5.20
2018-01-12T22:15:42.870Z,5.20
2018-01-12T22:18:10.309Z,5.20
2018-01-12T22:20:37.732Z,5.20
2018-01-12T22:23:05.452Z,5.20
2018-01-12T22:25:33.029Z,5.10
2018-01-12T22:28:00.494Z,5.10
2018-01-12T22:30:27.916Z,5.10
2018-01-12T22:32:55.405Z,5.20
2018-01-12T22:35:22.893Z,5.20
2018-01-12T22:37:50.316Z,5.10
2018-01-12T22:40:17.841Z,5.10
2018-01-12T22:42:45.337Z,5.10
2018-01-12T22:45:13.101Z,5.10
2018-01-12T22:47:40.530Z,5.10
2018-01-12T22:50:08.325Z,5.10
2018-01-12T22:52:35.781Z,5.20
2018-01-12T22:55:03.213Z,5.10
2018-01-12T22:57:30.705Z,5.10
2018-01-12T22:59:58.328Z,5.10
2018-01-12T23:02:25.921Z,5.10
2018-01-12T23:04:53.455Z,5.20
2018-01-12T23:07:21.040Z,5.10
2018-01-12T23:09:48.496Z,5.20
2018-01-12T23:12:15.948Z,5.20
2018-01-12T23:14:43.416Z,5.30
2018-01-12T23:17:10.972Z,5.30
2018-01-12T23:19:38.401Z,5.30
2018-01-12T23:22:06.197Z,5.30
2018-01-12T23:24:33.965Z,5.30
2018-01-12T23:27:01.493Z,5.20
2018-01-12T23:29:28.926Z,5.20
2018-01-12T23:31:56.513Z,5.20
2018-01-12T23:34:24.096Z,5.20
2018-01-12T23:36:51.563Z,5.20
2018-01-12T23:39:19.206Z,5.20
2018-01-12T23:41:46.634Z,5.20
2018-01-12T23:44:15.054Z,5.10
2018-01-12T23:46:42.521Z,5.10
2018-01-12T23:49:10.381Z,5.10
2018-01-12T23:51:38.017Z,5.10
2018-01-12T23:54:05.504Z,5.10
2018-01-12T23:56:33.066Z,5.10
2018-01-12T23:59:00.699Z,5.00
